Ashton, West Virginia
Current Conditions -  °F | °C
As of 3:15 PM on Thursday 30 Oct 2014 (Local Time) from K3I2 Reporting Station
Overcast Overcast  
Wind Chill: 12°   Ceiling: 4100
Heat Index: 12°   Visibility: 10mi
Dew Point:   Wind: 3mph
Humidity: 47%   Direction: 110°ESE
Pressure: 30.1"   Gusts: NA
Location:  38.62°N, 82.16°W
Report Text: K3I2 301915Z AUTO 11003KT 10SM OVC041 12/01 A3010 RMK AO2
Loading
Personal Weather Stations






























Interactive Weather Map
Tropical Storm Tracking
New forecast layout! Learn more

10-Day Weather Forecast

Advertisements
Track Severe Weather on mobile